Montreal, Missouri
Current Conditions -  °F | °C
As of 7:35 AM on Friday 19 Dec 2014 (Local Time) from KH21 Reporting Station
Haze Haze  
Wind Chill: 30°   Ceiling: 600
Heat Index: 34°   Visibility: 5mi
Dew Point: 34°   Wind: 5mph
Humidity: 100%   Direction: 90°E
Pressure: 30.26"   Gusts: NA
Location:  37.97°N, 92.59°W
Report Text: KH21 191335Z AUTO 09004KT 5SM BR BKN006 OVC011 01/01 A3026 RMK AO2
Loading
Personal Weather Stations






























Interactive Weather Map New forecast layout! Learn more

10-Day Weather Forecast

Advertisements
Track Severe Weather on mobile